sensor_id;sensor_type;location;lat;lon;timestamp;P1;durP1;ratioP1;P2;durP2;ratioP2
15858;SDS011;8029;52.202;7.308;2023-07-16T00:00:12;0.90;;;0.90;;
15858;SDS011;8029;52.202;7.308;2023-07-16T00:02:38;1.33;;;1.17;;
15858;SDS011;8029;52.202;7.308;2023-07-16T00:05:04;2.25;;;1.88;;
15858;SDS011;8029;52.202;7.308;2023-07-16T00:07:31;2.70;;;1.85;;
15858;SDS011;8029;52.202;7.308;2023-07-16T00:09:57;0.98;;;0.98;;
15858;SDS011;8029;52.202;7.308;2023-07-16T00:12:23;3.90;;;1.52;;
15858;SDS011;8029;52.202;7.308;2023-07-16T00:14:49;1.33;;;1.30;;
15858;SDS011;8029;52.202;7.308;2023-07-16T00:17:14;2.33;;;1.67;;
15858;SDS011;8029;52.202;7.308;2023-07-16T00:19:41;2.45;;;1.20;;
15858;SDS011;8029;52.202;7.308;2023-07-16T00:22:07;3.08;;;1.65;;
15858;SDS011;8029;52.202;7.308;2023-07-16T00:24:33;1.08;;;1.08;;
15858;SDS011;8029;52.202;7.308;2023-07-16T00:26:59;1.52;;;1.13;;
15858;SDS011;8029;52.202;7.308;2023-07-16T00:29:25;2.35;;;1.45;;
15858;SDS011;8029;52.202;7.308;2023-07-16T00:31:51;1.35;;;1.23;;
15858;SDS011;8029;52.202;7.308;2023-07-16T00:34:17;0.93;;;0.93;;
15858;SDS011;8029;52.202;7.308;2023-07-16T00:36:43;1.65;;;1.20;;
15858;SDS011;8029;52.202;7.308;2023-07-16T00:39:09;1.25;;;1.15;;
15858;SDS011;8029;52.202;7.308;2023-07-16T00:41:35;1.00;;;1.00;;
15858;SDS011;8029;52.202;7.308;2023-07-16T00:44:01;1.23;;;1.00;;
15858;SDS011;8029;52.202;7.308;2023-07-16T00:46:27;1.10;;;1.00;;
15858;SDS011;8029;52.202;7.308;2023-07-16T00:48:54;5.47;;;1.70;;
15858;SDS011;8029;52.202;7.308;2023-07-16T00:51:20;1.00;;;0.90;;
15858;SDS011;8029;52.202;7.308;2023-07-16T00:53:47;1.80;;;0.90;;
15858;SDS011;8029;52.202;7.308;2023-07-16T00:56:15;1.92;;;1.08;;
15858;SDS011;8029;52.202;7.308;2023-07-16T00:58:42;1.00;;;0.90;;
15858;SDS011;8029;52.202;7.308;2023-07-16T01:01:08;1.67;;;1.10;;
15858;SDS011;8029;52.202;7.308;2023-07-16T01:03:34;1.73;;;1.00;;
15858;SDS011;8029;52.202;7.308;2023-07-16T01:06:03;10.43;;;1.77;;
15858;SDS011;8029;52.202;7.308;2023-07-16T01:08:35;10.50;;;1.95;;
15858;SDS011;8029;52.202;7.308;2023-07-16T01:11:04;1.65;;;0.88;;
15858;SDS011;8029;52.202;7.308;2023-07-16T01:13:30;1.88;;;1.35;;
15858;SDS011;8029;52.202;7.308;2023-07-16T01:15:56;0.80;;;0.75;;
15858;SDS011;8029;52.202;7.308;2023-07-16T01:18:22;1.23;;;1.13;;
15858;SDS011;8029;52.202;7.308;2023-07-16T01:20:48;3.63;;;1.67;;
15858;SDS011;8029;52.202;7.308;2023-07-16T01:30:41;1.58;;;1.48;;
15858;SDS011;8029;52.202;7.308;2023-07-16T01:33:09;1.25;;;1.17;;
15858;SDS011;8029;52.202;7.308;2023-07-16T01:35:36;17.42;;;1.83;;
15858;SDS011;8029;52.202;7.308;2023-07-16T01:38:02;1.08;;;0.98;;
15858;SDS011;8029;52.202;7.308;2023-07-16T01:40:29;1.30;;;1.20;;
15858;SDS011;8029;52.202;7.308;2023-07-16T01:42:55;2.25;;;1.17;;
15858;SDS011;8029;52.202;7.308;2023-07-16T01:45:21;1.33;;;1.17;;
15858;SDS011;8029;52.202;7.308;2023-07-16T01:50:13;2.80;;;1.88;;
15858;SDS011;8029;52.202;7.308;2023-07-16T01:52:39;2.58;;;1.60;;
15858;SDS011;8029;52.202;7.308;2023-07-16T01:55:05;1.42;;;1.05;;
15858;SDS011;8029;52.202;7.308;2023-07-16T01:57:31;1.48;;;1.35;;
15858;SDS011;8029;52.202;7.308;2023-07-16T01:59:57;1.45;;;1.08;;
15858;SDS011;8029;52.202;7.308;2023-07-16T02:02:23;1.33;;;1.20;;
15858;SDS011;8029;52.202;7.308;2023-07-16T02:04:49;2.38;;;0.98;;
15858;SDS011;8029;52.202;7.308;2023-07-16T02:07:15;1.27;;;1.17;;
15858;SDS011;8029;52.202;7.308;2023-07-16T02:09:41;2.50;;;1.20;;
15858;SDS011;8029;52.202;7.308;2023-07-16T02:12:07;0.90;;;0.90;;
15858;SDS011;8029;52.202;7.308;2023-07-16T02:14:33;13.45;;;1.08;;
15858;SDS011;8029;52.202;7.308;2023-07-16T02:16:59;1.33;;;1.23;;
15858;SDS011;8029;52.202;7.308;2023-07-16T02:19:25;1.15;;;1.02;;
15858;SDS011;8029;52.202;7.308;2023-07-16T02:21:51;1.00;;;0.70;;
15858;SDS011;8029;52.202;7.308;2023-07-16T02:24:17;3.00;;;1.10;;
15858;SDS011;8029;52.202;7.308;2023-07-16T02:26:43;1.20;;;1.10;;
15858;SDS011;8029;52.202;7.308;2023-07-16T02:29:09;1.75;;;1.40;;
15858;SDS011;8029;52.202;7.308;2023-07-16T02:31:36;1.10;;;1.10;;
15858;SDS011;8029;52.202;7.308;2023-07-16T02:34:02;1.30;;;1.05;;
15858;SDS011;8029;52.202;7.308;2023-07-16T02:36:28;2.00;;;1.65;;
15858;SDS011;8029;52.202;7.308;2023-07-16T02:38:54;1.42;;;1.33;;
15858;SDS011;8029;52.202;7.308;2023-07-16T02:41:20;2.35;;;1.65;;
15858;SDS011;8029;52.202;7.308;2023-07-16T02:43:46;2.08;;;1.55;;
15858;SDS011;8029;52.202;7.308;2023-07-16T02:46:12;4.00;;;1.88;;
15858;SDS011;8029;52.202;7.308;2023-07-16T02:48:38;1.60;;;1.20;;
15858;SDS011;8029;52.202;7.308;2023-07-16T02:51:04;1.55;;;1.30;;
15858;SDS011;8029;52.202;7.308;2023-07-16T02:53:30;2.60;;;1.83;;
15858;SDS011;8029;52.202;7.308;2023-07-16T02:55:56;1.17;;;1.08;;
15858;SDS011;8029;52.202;7.308;2023-07-16T02:58:22;0.88;;;0.88;;
15858;SDS011;8029;52.202;7.308;2023-07-16T03:00:48;3.25;;;1.55;;
15858;SDS011;8029;52.202;7.308;2023-07-16T03:03:13;1.85;;;1.25;;
15858;SDS011;8029;52.202;7.308;2023-07-16T03:05:39;1.13;;;1.10;;
15858;SDS011;8029;52.202;7.308;2023-07-16T03:08:05;1.58;;;1.40;;
15858;SDS011;8029;52.202;7.308;2023-07-16T03:10:31;1.30;;;1.25;;
15858;SDS011;8029;52.202;7.308;2023-07-16T03:12:57;2.72;;;1.77;;
15858;SDS011;8029;52.202;7.308;2023-07-16T03:15:23;1.40;;;1.30;;
15858;SDS011;8029;52.202;7.308;2023-07-16T03:17:49;2.83;;;1.40;;
15858;SDS011;8029;52.202;7.308;2023-07-16T03:20:15;1.58;;;1.35;;
15858;SDS011;8029;52.202;7.308;2023-07-16T03:22:41;0.77;;;0.77;;
15858;SDS011;8029;52.202;7.308;2023-07-16T03:25:07;1.30;;;1.00;;
15858;SDS011;8029;52.202;7.308;2023-07-16T03:27:33;1.30;;;1.20;;
15858;SDS011;8029;52.202;7.308;2023-07-16T03:29:59;1.02;;;1.00;;
15858;SDS011;8029;52.202;7.308;2023-07-16T03:32:25;2.08;;;1.40;;
15858;SDS011;8029;52.202;7.308;2023-07-16T03:34:51;2.03;;;1.25;;
15858;SDS011;8029;52.202;7.308;2023-07-16T03:37:17;1.63;;;1.30;;
15858;SDS011;8029;52.202;7.308;2023-07-16T03:39:43;1.40;;;1.15;;
15858;SDS011;8029;52.202;7.308;2023-07-16T03:42:09;1.90;;;0.95;;
15858;SDS011;8029;52.202;7.308;2023-07-16T03:44:35;1.60;;;1.27;;
15858;SDS011;8029;52.202;7.308;2023-07-16T03:47:01;1.45;;;1.15;;
15858;SDS011;8029;52.202;7.308;2023-07-16T03:49:27;2.10;;;1.58;;
15858;SDS011;8029;52.202;7.308;2023-07-16T03:51:53;1.20;;;1.02;;
15858;SDS011;8029;52.202;7.308;2023-07-16T03:54:19;0.63;;;0.63;;
15858;SDS011;8029;52.202;7.308;2023-07-16T03:56:45;1.13;;;1.05;;
15858;SDS011;8029;52.202;7.308;2023-07-16T03:59:11;1.33;;;1.23;;
15858;SDS011;8029;52.202;7.308;2023-07-16T04:01:37;1.00;;;0.82;;
15858;SDS011;8029;52.202;7.308;2023-07-16T04:04:03;1.30;;;1.20;;
15858;SDS011;8029;52.202;7.308;2023-07-16T04:06:29;1.58;;;1.17;;
15858;SDS011;8029;52.202;7.308;2023-07-16T04:08:55;1.00;;;0.90;;
15858;SDS011;8029;52.202;7.308;2023-07-16T04:11:21;1.40;;;1.30;;
15858;SDS011;8029;52.202;7.308;2023-07-16T04:13:47;2.40;;;1.23;;
15858;SDS011;8029;52.202;7.308;2023-07-16T04:16:13;1.90;;;1.70;;
15858;SDS011;8029;52.202;7.308;2023-07-16T04:18:39;3.72;;;2.08;;
15858;SDS011;8029;52.202;7.308;2023-07-16T04:21:05;1.48;;;1.33;;
15858;SDS011;8029;52.202;7.308;2023-07-16T04:23:31;3.92;;;1.95;;
15858;SDS011;8029;52.202;7.308;2023-07-16T04:25:57;1.00;;;0.88;;
15858;SDS011;8029;52.202;7.308;2023-07-16T04:28:23;1.85;;;0.95;;
15858;SDS011;8029;52.202;7.308;2023-07-16T04:30:49;2.40;;;1.40;;
15858;SDS011;8029;52.202;7.308;2023-07-16T04:33:15;1.95;;;1.52;;
15858;SDS011;8029;52.202;7.308;2023-07-16T04:35:41;2.28;;;1.40;;
15858;SDS011;8029;52.202;7.308;2023-07-16T04:38:07;3.38;;;1.40;;
15858;SDS011;8029;52.202;7.308;2023-07-16T04:40:33;1.83;;;1.48;;
15858;SDS011;8029;52.202;7.308;2023-07-16T04:42:59;1.52;;;1.42;;
15858;SDS011;8029;52.202;7.308;2023-07-16T04:45:25;2.20;;;1.98;;
15858;SDS011;8029;52.202;7.308;2023-07-16T04:47:51;3.13;;;1.58;;
15858;SDS011;8029;52.202;7.308;2023-07-16T04:50:17;4.97;;;1.77;;
15858;SDS011;8029;52.202;7.308;2023-07-16T04:52:43;1.92;;;1.38;;
15858;SDS011;8029;52.202;7.308;2023-07-16T04:55:09;1.48;;;1.38;;
15858;SDS011;8029;52.202;7.308;2023-07-16T04:57:36;2.05;;;1.73;;
15858;SDS011;8029;52.202;7.308;2023-07-16T05:00:02;1.98;;;1.77;;
15858;SDS011;8029;52.202;7.308;2023-07-16T05:02:30;3.17;;;2.00;;
15858;SDS011;8029;52.202;7.308;2023-07-16T05:04:56;4.50;;;1.65;;
15858;SDS011;8029;52.202;7.308;2023-07-16T05:07:22;1.27;;;1.17;;
15858;SDS011;8029;52.202;7.308;2023-07-16T05:09:48;0.93;;;0.93;;
15858;SDS011;8029;52.202;7.308;2023-07-16T05:12:14;5.05;;;1.88;;
15858;SDS011;8029;52.202;7.308;2023-07-16T05:14:44;1.10;;;1.00;;
15858;SDS011;8029;52.202;7.308;2023-07-16T05:17:10;2.30;;;1.83;;
15858;SDS011;8029;52.202;7.308;2023-07-16T05:19:36;1.23;;;1.10;;
15858;SDS011;8029;52.202;7.308;2023-07-16T05:22:03;1.40;;;1.30;;
15858;SDS011;8029;52.202;7.308;2023-07-16T05:24:30;1.67;;;1.48;;
15858;SDS011;8029;52.202;7.308;2023-07-16T05:26:56;3.22;;;2.13;;
15858;SDS011;8029;52.202;7.308;2023-07-16T05:29:21;3.22;;;2.63;;
15858;SDS011;8029;52.202;7.308;2023-07-16T05:31:47;4.78;;;2.50;;
15858;SDS011;8029;52.202;7.308;2023-07-16T05:34:14;4.25;;;2.13;;
15858;SDS011;8029;52.202;7.308;2023-07-16T05:36:41;4.22;;;1.92;;
15858;SDS011;8029;52.202;7.308;2023-07-16T05:39:07;1.52;;;1.42;;
15858;SDS011;8029;52.202;7.308;2023-07-16T05:41:33;2.45;;;2.15;;
15858;SDS011;8029;52.202;7.308;2023-07-16T05:43:59;2.83;;;2.22;;
15858;SDS011;8029;52.202;7.308;2023-07-16T05:46:25;1.58;;;1.45;;
15858;SDS011;8029;52.202;7.308;2023-07-16T05:48:51;1.60;;;1.38;;
15858;SDS011;8029;52.202;7.308;2023-07-16T05:51:17;1.65;;;1.40;;
15858;SDS011;8029;52.202;7.308;2023-07-16T05:53:43;1.55;;;1.42;;
15858;SDS011;8029;52.202;7.308;2023-07-16T05:56:09;2.75;;;2.47;;
15858;SDS011;8029;52.202;7.308;2023-07-16T05:58:35;3.60;;;2.25;;
15858;SDS011;8029;52.202;7.308;2023-07-16T06:01:01;2.97;;;1.77;;
15858;SDS011;8029;52.202;7.308;2023-07-16T06:03:27;2.83;;;2.45;;
15858;SDS011;8029;52.202;7.308;2023-07-16T06:05:54;4.05;;;3.03;;
15858;SDS011;8029;52.202;7.308;2023-07-16T06:08:20;2.13;;;1.85;;
15858;SDS011;8029;52.202;7.308;2023-07-16T06:10:46;2.05;;;1.85;;
15858;SDS011;8029;52.202;7.308;2023-07-16T06:13:12;2.78;;;2.08;;
15858;SDS011;8029;52.202;7.308;2023-07-16T06:15:38;2.47;;;1.58;;
15858;SDS011;8029;52.202;7.308;2023-07-16T06:18:04;3.20;;;2.83;;
15858;SDS011;8029;52.202;7.308;2023-07-16T06:20:30;4.10;;;2.88;;
15858;SDS011;8029;52.202;7.308;2023-07-16T06:22:56;3.05;;;2.00;;
15858;SDS011;8029;52.202;7.308;2023-07-16T06:25:22;3.92;;;2.75;;
15858;SDS011;8029;52.202;7.308;2023-07-16T06:27:48;9.32;;;2.22;;
15858;SDS011;8029;52.202;7.308;2023-07-16T06:30:14;5.53;;;2.65;;
15858;SDS011;8029;52.202;7.308;2023-07-16T06:32:40;2.58;;;2.38;;
15858;SDS011;8029;52.202;7.308;2023-07-16T06:35:06;3.53;;;3.00;;
15858;SDS011;8029;52.202;7.308;2023-07-16T06:37:32;3.40;;;2.90;;
15858;SDS011;8029;52.202;7.308;2023-07-16T06:39:58;11.30;;;3.15;;
15858;SDS011;8029;52.202;7.308;2023-07-16T06:42:24;5.03;;;3.00;;
15858;SDS011;8029;52.202;7.308;2023-07-16T06:44:50;2.17;;;1.90;;
15858;SDS011;8029;52.202;7.308;2023-07-16T06:47:16;2.33;;;2.13;;
15858;SDS011;8029;52.202;7.308;2023-07-16T06:49:42;5.63;;;2.40;;
15858;SDS011;8029;52.202;7.308;2023-07-16T06:52:08;3.17;;;2.60;;
15858;SDS011;8029;52.202;7.308;2023-07-16T06:54:34;2.97;;;2.33;;
15858;SDS011;8029;52.202;7.308;2023-07-16T06:57:00;2.83;;;2.05;;
15858;SDS011;8029;52.202;7.308;2023-07-16T06:59:26;3.33;;;2.13;;
15858;SDS011;8029;52.202;7.308;2023-07-16T07:01:52;7.20;;;4.22;;
15858;SDS011;8029;52.202;7.308;2023-07-16T07:04:18;5.15;;;2.70;;
15858;SDS011;8029;52.202;7.308;2023-07-16T07:06:44;2.25;;;2.05;;
15858;SDS011;8029;52.202;7.308;2023-07-16T07:09:10;4.55;;;1.85;;
15858;SDS011;8029;52.202;7.308;2023-07-16T07:11:36;1.70;;;1.60;;
15858;SDS011;8029;52.202;7.308;2023-07-16T07:14:02;6.20;;;3.10;;
15858;SDS011;8029;52.202;7.308;2023-07-16T07:16:28;11.35;;;2.78;;
15858;SDS011;8029;52.202;7.308;2023-07-16T07:18:54;4.47;;;2.75;;
15858;SDS011;8029;52.202;7.308;2023-07-16T07:21:20;2.85;;;2.45;;
15858;SDS011;8029;52.202;7.308;2023-07-16T07:23:46;2.70;;;2.38;;
15858;SDS011;8029;52.202;7.308;2023-07-16T07:26:12;2.45;;;2.25;;
15858;SDS011;8029;52.202;7.308;2023-07-16T07:28:38;2.03;;;1.88;;
15858;SDS011;8029;52.202;7.308;2023-07-16T07:31:04;3.95;;;3.15;;
15858;SDS011;8029;52.202;7.308;2023-07-16T07:33:30;2.80;;;2.50;;
15858;SDS011;8029;52.202;7.308;2023-07-16T07:35:57;3.03;;;2.20;;
15858;SDS011;8029;52.202;7.308;2023-07-16T07:38:23;3.13;;;2.83;;
15858;SDS011;8029;52.202;7.308;2023-07-16T07:40:49;2.45;;;2.25;;
15858;SDS011;8029;52.202;7.308;2023-07-16T07:43:15;2.58;;;2.08;;
15858;SDS011;8029;52.202;7.308;2023-07-16T07:45:41;4.60;;;2.40;;
15858;SDS011;8029;52.202;7.308;2023-07-16T07:48:07;3.00;;;2.38;;
15858;SDS011;8029;52.202;7.308;2023-07-16T07:50:33;2.90;;;2.60;;
15858;SDS011;8029;52.202;7.308;2023-07-16T07:52:59;2.83;;;1.70;;
15858;SDS011;8029;52.202;7.308;2023-07-16T07:55:25;3.78;;;2.63;;
15858;SDS011;8029;52.202;7.308;2023-07-16T07:57:51;2.78;;;2.13;;
15858;SDS011;8029;52.202;7.308;2023-07-16T08:00:17;2.22;;;2.03;;
15858;SDS011;8029;52.202;7.308;2023-07-16T08:02:43;2.72;;;2.47;;
15858;SDS011;8029;52.202;7.308;2023-07-16T08:05:09;4.18;;;2.35;;
15858;SDS011;8029;52.202;7.308;2023-07-16T08:07:35;3.08;;;2.50;;
15858;SDS011;8029;52.202;7.308;2023-07-16T08:10:01;3.00;;;2.55;;
15858;SDS011;8029;52.202;7.308;2023-07-16T08:12:27;2.30;;;2.10;;
15858;SDS011;8029;52.202;7.308;2023-07-16T08:14:54;2.67;;;2.42;;
15858;SDS011;8029;52.202;7.308;2023-07-16T08:17:20;3.97;;;2.60;;
15858;SDS011;8029;52.202;7.308;2023-07-16T08:19:46;5.35;;;2.35;;
15858;SDS011;8029;52.202;7.308;2023-07-16T08:22:12;2.80;;;2.20;;
15858;SDS011;8029;52.202;7.308;2023-07-16T08:24:38;2.78;;;2.33;;
15858;SDS011;8029;52.202;7.308;2023-07-16T08:27:04;29.02;;;2.20;;
15858;SDS011;8029;52.202;7.308;2023-07-16T08:29:30;3.75;;;2.65;;
15858;SDS011;8029;52.202;7.308;2023-07-16T08:31:56;4.05;;;2.40;;
15858;SDS011;8029;52.202;7.308;2023-07-16T08:34:22;2.88;;;2.10;;
15858;SDS011;8029;52.202;7.308;2023-07-16T08:36:48;1.45;;;1.35;;
15858;SDS011;8029;52.202;7.308;2023-07-16T08:39:14;4.10;;;3.25;;
15858;SDS011;8029;52.202;7.308;2023-07-16T08:41:44;3.97;;;2.20;;
15858;SDS011;8029;52.202;7.308;2023-07-16T08:44:11;2.63;;;2.25;;
15858;SDS011;8029;52.202;7.308;2023-07-16T08:46:37;2.75;;;1.98;;
15858;SDS011;8029;52.202;7.308;2023-07-16T08:49:05;2.03;;;1.83;;
15858;SDS011;8029;52.202;7.308;2023-07-16T08:51:34;1.80;;;1.70;;
15858;SDS011;8029;52.202;7.308;2023-07-16T08:54:00;1.75;;;1.65;;
15858;SDS011;8029;52.202;7.308;2023-07-16T08:56:26;2.20;;;1.92;;
15858;SDS011;8029;52.202;7.308;2023-07-16T08:58:54;2.53;;;2.25;;
15858;SDS011;8029;52.202;7.308;2023-07-16T09:01:21;3.00;;;2.08;;
15858;SDS011;8029;52.202;7.308;2023-07-16T09:03:47;3.17;;;2.20;;
15858;SDS011;8029;52.202;7.308;2023-07-16T09:06:13;2.40;;;2.20;;
15858;SDS011;8029;52.202;7.308;2023-07-16T09:08:39;3.08;;;2.45;;
15858;SDS011;8029;52.202;7.308;2023-07-16T09:11:05;2.55;;;1.73;;
15858;SDS011;8029;52.202;7.308;2023-07-16T09:13:31;1.92;;;1.70;;
15858;SDS011;8029;52.202;7.308;2023-07-16T09:15:57;2.95;;;1.70;;
15858;SDS011;8029;52.202;7.308;2023-07-16T09:18:26;1.98;;;1.85;;
15858;SDS011;8029;52.202;7.308;2023-07-16T09:20:55;3.85;;;2.38;;
15858;SDS011;8029;52.202;7.308;2023-07-16T09:23:25;1.73;;;1.63;;
15858;SDS011;8029;52.202;7.308;2023-07-16T09:25:52;2.72;;;1.83;;
15858;SDS011;8029;52.202;7.308;2023-07-16T09:28:19;1.70;;;1.60;;
15858;SDS011;8029;52.202;7.308;2023-07-16T09:30:45;1.88;;;1.67;;
15858;SDS011;8029;52.202;7.308;2023-07-16T09:33:15;3.92;;;2.40;;
15858;SDS011;8029;52.202;7.308;2023-07-16T09:35:43;1.90;;;1.80;;
15858;SDS011;8029;52.202;7.308;2023-07-16T09:38:09;2.38;;;2.03;;
15858;SDS011;8029;52.202;7.308;2023-07-16T09:40:36;2.50;;;1.95;;
15858;SDS011;8029;52.202;7.308;2023-07-16T09:43:02;3.75;;;2.28;;
15858;SDS011;8029;52.202;7.308;2023-07-16T09:45:29;2.85;;;2.13;;
15858;SDS011;8029;52.202;7.308;2023-07-16T09:47:56;2.10;;;1.80;;
15858;SDS011;8029;52.202;7.308;2023-07-16T09:50:23;2.05;;;1.85;;
15858;SDS011;8029;52.202;7.308;2023-07-16T09:52:52;4.47;;;1.92;;
15858;SDS011;8029;52.202;7.308;2023-07-16T09:55:18;1.83;;;1.65;;
15858;SDS011;8029;52.202;7.308;2023-07-16T09:57:47;4.10;;;1.70;;
15858;SDS011;8029;52.202;7.308;2023-07-16T10:00:13;1.90;;;1.73;;
15858;SDS011;8029;52.202;7.308;2023-07-16T10:02:40;2.50;;;2.10;;
15858;SDS011;8029;52.202;7.308;2023-07-16T10:05:17;6.13;;;1.85;;
15858;SDS011;8029;52.202;7.308;2023-07-16T10:07:48;1.90;;;1.75;;
15858;SDS011;8029;52.202;7.308;2023-07-16T10:10:14;1.70;;;1.55;;
15858;SDS011;8029;52.202;7.308;2023-07-16T10:12:42;3.95;;;1.90;;
15858;SDS011;8029;52.202;7.308;2023-07-16T10:15:11;2.00;;;1.83;;
15858;SDS011;8029;52.202;7.308;2023-07-16T10:17:37;3.40;;;2.60;;
15858;SDS011;8029;52.202;7.308;2023-07-16T10:20:07;2.15;;;1.95;;
15858;SDS011;8029;52.202;7.308;2023-07-16T10:25:09;2.30;;;2.05;;
15858;SDS011;8029;52.202;7.308;2023-07-16T10:27:35;3.08;;;2.03;;
15858;SDS011;8029;52.202;7.308;2023-07-16T10:30:02;2.42;;;1.77;;
15858;SDS011;8029;52.202;7.308;2023-07-16T10:32:29;15.25;;;2.33;;
15858;SDS011;8029;52.202;7.308;2023-07-16T10:34:56;3.90;;;2.33;;
15858;SDS011;8029;52.202;7.308;2023-07-16T10:37:22;1.90;;;1.63;;
15858;SDS011;8029;52.202;7.308;2023-07-16T10:39:57;1.88;;;1.77;;
15858;SDS011;8029;52.202;7.308;2023-07-16T10:42:24;1.55;;;1.45;;
15858;SDS011;8029;52.202;7.308;2023-07-16T10:44:54;2.38;;;1.85;;
15858;SDS011;8029;52.202;7.308;2023-07-16T10:47:24;1.98;;;1.85;;
15858;SDS011;8029;52.202;7.308;2023-07-16T10:49:50;3.90;;;2.72;;
15858;SDS011;8029;52.202;7.308;2023-07-16T10:52:20;2.35;;;1.88;;
15858;SDS011;8029;52.202;7.308;2023-07-16T10:54:46;2.72;;;2.00;;
15858;SDS011;8029;52.202;7.308;2023-07-16T10:57:14;2.05;;;1.85;;
15858;SDS011;8029;52.202;7.308;2023-07-16T10:59:41;4.20;;;2.53;;
15858;SDS011;8029;52.202;7.308;2023-07-16T11:02:10;1.95;;;1.77;;
15858;SDS011;8029;52.202;7.308;2023-07-16T11:04:36;2.20;;;2.00;;
15858;SDS011;8029;52.202;7.308;2023-07-16T11:07:06;2.50;;;2.28;;
15858;SDS011;8029;52.202;7.308;2023-07-16T11:09:33;5.82;;;2.15;;
15858;SDS011;8029;52.202;7.308;2023-07-16T11:12:06;6.60;;;2.20;;
15858;SDS011;8029;52.202;7.308;2023-07-16T11:14:32;1.63;;;1.52;;
15858;SDS011;8029;52.202;7.308;2023-07-16T11:17:03;3.70;;;1.55;;
15858;SDS011;8029;52.202;7.308;2023-07-16T11:19:32;1.42;;;1.33;;
15858;SDS011;8029;52.202;7.308;2023-07-16T11:21:59;1.35;;;1.25;;
15858;SDS011;8029;52.202;7.308;2023-07-16T11:24:26;3.55;;;2.63;;
15858;SDS011;8029;52.202;7.308;2023-07-16T11:26:52;1.88;;;1.77;;
15858;SDS011;8029;52.202;7.308;2023-07-16T11:29:20;2.45;;;1.65;;
15858;SDS011;8029;52.202;7.308;2023-07-16T11:31:51;2.03;;;1.88;;
15858;SDS011;8029;52.202;7.308;2023-07-16T11:34:19;1.92;;;1.40;;
15858;SDS011;8029;52.202;7.308;2023-07-16T11:36:46;1.92;;;1.77;;
15858;SDS011;8029;52.202;7.308;2023-07-16T11:39:12;2.20;;;2.00;;
15858;SDS011;8029;52.202;7.308;2023-07-16T11:41:38;2.67;;;1.83;;
15858;SDS011;8029;52.202;7.308;2023-07-16T11:44:04;2.85;;;1.95;;
15858;SDS011;8029;52.202;7.308;2023-07-16T11:46:32;1.65;;;1.55;;
15858;SDS011;8029;52.202;7.308;2023-07-16T11:48:59;1.80;;;1.58;;
15858;SDS011;8029;52.202;7.308;2023-07-16T11:51:25;2.35;;;1.88;;
15858;SDS011;8029;52.202;7.308;2023-07-16T11:53:51;2.67;;;2.00;;
15858;SDS011;8029;52.202;7.308;2023-07-16T11:56:17;1.77;;;1.48;;
15858;SDS011;8029;52.202;7.308;2023-07-16T11:58:43;2.55;;;2.00;;
15858;SDS011;8029;52.202;7.308;2023-07-16T12:01:09;1.75;;;1.65;;
15858;SDS011;8029;52.202;7.308;2023-07-16T12:03:35;3.63;;;2.08;;
15858;SDS011;8029;52.202;7.308;2023-07-16T12:06:01;2.22;;;1.83;;
15858;SDS011;8029;52.202;7.308;2023-07-16T12:08:27;2.28;;;1.88;;
15858;SDS011;8029;52.202;7.308;2023-07-16T12:10:54;2.25;;;1.83;;
15858;SDS011;8029;52.202;7.308;2023-07-16T12:13:20;1.73;;;1.60;;
15858;SDS011;8029;52.202;7.308;2023-07-16T12:15:46;2.15;;;1.95;;
15858;SDS011;8029;52.202;7.308;2023-07-16T12:18:12;2.65;;;1.55;;
15858;SDS011;8029;52.202;7.308;2023-07-16T12:20:38;2.28;;;2.00;;
15858;SDS011;8029;52.202;7.308;2023-07-16T12:23:05;1.95;;;1.63;;
15858;SDS011;8029;52.202;7.308;2023-07-16T12:25:31;2.13;;;1.83;;
15858;SDS011;8029;52.202;7.308;2023-07-16T12:27:57;1.85;;;1.70;;
15858;SDS011;8029;52.202;7.308;2023-07-16T12:30:23;2.38;;;2.00;;
15858;SDS011;8029;52.202;7.308;2023-07-16T12:32:49;2.08;;;1.80;;
15858;SDS011;8029;52.202;7.308;2023-07-16T12:35:15;2.75;;;1.95;;
15858;SDS011;8029;52.202;7.308;2023-07-16T12:37:41;5.53;;;1.63;;
15858;SDS011;8029;52.202;7.308;2023-07-16T12:40:07;1.55;;;1.45;;
15858;SDS011;8029;52.202;7.308;2023-07-16T12:42:33;2.08;;;1.50;;
15858;SDS011;8029;52.202;7.308;2023-07-16T12:45:02;2.97;;;1.90;;
15858;SDS011;8029;52.202;7.308;2023-07-16T12:47:31;2.05;;;1.90;;
15858;SDS011;8029;52.202;7.308;2023-07-16T12:49:57;2.08;;;1.88;;
15858;SDS011;8029;52.202;7.308;2023-07-16T12:52:23;1.38;;;1.27;;
15858;SDS011;8029;52.202;7.308;2023-07-16T12:54:49;1.98;;;1.73;;
15858;SDS011;8029;52.202;7.308;2023-07-16T12:57:16;1.67;;;1.58;;
15858;SDS011;8029;52.202;7.308;2023-07-16T12:59:42;1.83;;;1.73;;
15858;SDS011;8029;52.202;7.308;2023-07-16T13:02:08;2.00;;;1.50;;
15858;SDS011;8029;52.202;7.308;2023-07-16T13:04:34;2.13;;;1.93;;
15858;SDS011;8029;52.202;7.308;2023-07-16T13:07:00;3.08;;;1.55;;
15858;SDS011;8029;52.202;7.308;2023-07-16T13:09:26;2.08;;;1.65;;
15858;SDS011;8029;52.202;7.308;2023-07-16T13:11:52;1.63;;;1.45;;
15858;SDS011;8029;52.202;7.308;2023-07-16T13:14:18;1.38;;;1.27;;
15858;SDS011;8029;52.202;7.308;2023-07-16T13:16:44;1.60;;;1.50;;
15858;SDS011;8029;52.202;7.308;2023-07-16T13:19:10;2.05;;;1.33;;
15858;SDS011;8029;52.202;7.308;2023-07-16T13:21:36;1.98;;;1.83;;
15858;SDS011;8029;52.202;7.308;2023-07-16T13:24:02;1.60;;;1.50;;
15858;SDS011;8029;52.202;7.308;2023-07-16T13:26:28;1.63;;;1.52;;
15858;SDS011;8029;52.202;7.308;2023-07-16T13:28:54;1.75;;;1.23;;
15858;SDS011;8029;52.202;7.308;2023-07-16T13:31:20;2.35;;;1.50;;
15858;SDS011;8029;52.202;7.308;2023-07-16T13:33:46;1.92;;;1.75;;
15858;SDS011;8029;52.202;7.308;2023-07-16T13:36:12;1.65;;;1.50;;
15858;SDS011;8029;52.202;7.308;2023-07-16T13:38:38;4.25;;;1.50;;
15858;SDS011;8029;52.202;7.308;2023-07-16T13:41:04;2.83;;;1.13;;
15858;SDS011;8029;52.202;7.308;2023-07-16T13:43:30;1.23;;;1.17;;
15858;SDS011;8029;52.202;7.308;2023-07-16T13:45:56;3.17;;;1.80;;
15858;SDS011;8029;52.202;7.308;2023-07-16T13:48:22;1.88;;;1.52;;
15858;SDS011;8029;52.202;7.308;2023-07-16T13:50:48;1.23;;;1.05;;
15858;SDS011;8029;52.202;7.308;2023-07-16T13:53:14;1.58;;;1.48;;
15858;SDS011;8029;52.202;7.308;2023-07-16T13:55:40;1.52;;;1.42;;
15858;SDS011;8029;52.202;7.308;2023-07-16T13:58:06;9.80;;;1.48;;
15858;SDS011;8029;52.202;7.308;2023-07-16T14:00:32;1.33;;;1.05;;
15858;SDS011;8029;52.202;7.308;2023-07-16T14:02:58;0.98;;;0.98;;
15858;SDS011;8029;52.202;7.308;2023-07-16T14:05:24;2.53;;;1.63;;
15858;SDS011;8029;52.202;7.308;2023-07-16T14:07:50;1.00;;;0.90;;
15858;SDS011;8029;52.202;7.308;2023-07-16T14:10:18;1.08;;;1.08;;
15858;SDS011;8029;52.202;7.308;2023-07-16T14:12:44;0.77;;;0.77;;
15858;SDS011;8029;52.202;7.308;2023-07-16T14:15:10;1.33;;;1.23;;
15858;SDS011;8029;52.202;7.308;2023-07-16T14:17:36;1.88;;;1.35;;
15858;SDS011;8029;52.202;7.308;2023-07-16T14:20:03;1.65;;;1.52;;
15858;SDS011;8029;52.202;7.308;2023-07-16T14:22:29;2.15;;;1.40;;
15858;SDS011;8029;52.202;7.308;2023-07-16T14:24:55;1.25;;;1.17;;
15858;SDS011;8029;52.202;7.308;2023-07-16T14:27:21;0.85;;;0.85;;
15858;SDS011;8029;52.202;7.308;2023-07-16T14:29:47;1.75;;;1.65;;
15858;SDS011;8029;52.202;7.308;2023-07-16T14:32:13;2.35;;;1.05;;
15858;SDS011;8029;52.202;7.308;2023-07-16T14:34:40;1.25;;;1.02;;
15858;SDS011;8029;52.202;7.308;2023-07-16T14:37:06;1.10;;;1.00;;
15858;SDS011;8029;52.202;7.308;2023-07-16T14:39:32;2.05;;;1.45;;
15858;SDS011;8029;52.202;7.308;2023-07-16T14:41:58;1.48;;;1.38;;
15858;SDS011;8029;52.202;7.308;2023-07-16T14:44:28;1.58;;;1.30;;
15858;SDS011;8029;52.202;7.308;2023-07-16T14:47:00;0.75;;;0.75;;
15858;SDS011;8029;52.202;7.308;2023-07-16T14:49:26;0.70;;;0.70;;
15858;SDS011;8029;52.202;7.308;2023-07-16T14:51:52;1.20;;;1.20;;
15858;SDS011;8029;52.202;7.308;2023-07-16T14:54:18;0.93;;;0.93;;
15858;SDS011;8029;52.202;7.308;2023-07-16T14:56:44;1.50;;;0.85;;
15858;SDS011;8029;52.202;7.308;2023-07-16T14:59:10;1.23;;;1.13;;
15858;SDS011;8029;52.202;7.308;2023-07-16T15:01:36;0.73;;;0.73;;
15858;SDS011;8029;52.202;7.308;2023-07-16T15:04:03;1.42;;;1.33;;
15858;SDS011;8029;52.202;7.308;2023-07-16T15:06:30;0.88;;;0.88;;